sensor_id;sensor_type;location;lat;lon;timestamp;P1;durP1;ratioP1;P2;durP2;ratioP2
70675;SDS011;59069;52.242;20.900;2023-02-19T00:01:06;11.60;;;3.70;;
70675;SDS011;59069;52.242;20.900;2023-02-19T00:03:34;11.80;;;3.05;;
70675;SDS011;59069;52.242;20.900;2023-02-19T00:06:00;10.07;;;3.08;;
70675;SDS011;59069;52.242;20.900;2023-02-19T00:08:28;8.70;;;2.90;;
70675;SDS011;59069;52.242;20.900;2023-02-19T00:10:58;8.85;;;2.65;;
70675;SDS011;59069;52.242;20.900;2023-02-19T00:13:28;9.93;;;2.85;;
70675;SDS011;59069;52.242;20.900;2023-02-19T00:15:54;10.63;;;2.50;;
70675;SDS011;59069;52.242;20.900;2023-02-19T00:18:20;9.07;;;2.10;;
70675;SDS011;59069;52.242;20.900;2023-02-19T00:20:46;7.47;;;2.63;;
70675;SDS011;59069;52.242;20.900;2023-02-19T00:23:12;8.65;;;2.20;;
70675;SDS011;59069;52.242;20.900;2023-02-19T00:25:37;9.77;;;2.33;;
70675;SDS011;59069;52.242;20.900;2023-02-19T00:28:03;9.60;;;2.95;;
70675;SDS011;59069;52.242;20.900;2023-02-19T00:30:29;10.60;;;2.90;;
70675;SDS011;59069;52.242;20.900;2023-02-19T00:32:55;10.70;;;2.60;;
70675;SDS011;59069;52.242;20.900;2023-02-19T00:35:20;7.80;;;2.60;;
70675;SDS011;59069;52.242;20.900;2023-02-19T00:37:49;9.17;;;2.33;;
70675;SDS011;59069;52.242;20.900;2023-02-19T00:40:14;8.82;;;2.97;;
70675;SDS011;59069;52.242;20.900;2023-02-19T00:42:40;11.60;;;2.73;;
70675;SDS011;59069;52.242;20.900;2023-02-19T00:45:05;8.53;;;2.67;;
70675;SDS011;59069;52.242;20.900;2023-02-19T00:47:31;9.85;;;2.55;;
70675;SDS011;59069;52.242;20.900;2023-02-19T00:49:57;13.85;;;2.65;;
70675;SDS011;59069;52.242;20.900;2023-02-19T00:52:22;11.77;;;2.70;;
70675;SDS011;59069;52.242;20.900;2023-02-19T00:54:48;7.47;;;2.43;;
70675;SDS011;59069;52.242;20.900;2023-02-19T00:57:13;11.68;;;2.83;;
70675;SDS011;59069;52.242;20.900;2023-02-19T00:59:39;11.47;;;2.60;;
70675;SDS011;59069;52.242;20.900;2023-02-19T01:02:05;9.82;;;2.53;;
70675;SDS011;59069;52.242;20.900;2023-02-19T01:04:30;9.13;;;2.57;;
70675;SDS011;59069;52.242;20.900;2023-02-19T01:06:56;9.27;;;2.63;;
70675;SDS011;59069;52.242;20.900;2023-02-19T01:09:21;10.32;;;2.80;;
70675;SDS011;59069;52.242;20.900;2023-02-19T01:11:47;12.20;;;2.80;;
70675;SDS011;59069;52.242;20.900;2023-02-19T01:14:12;12.30;;;2.92;;
70675;SDS011;59069;52.242;20.900;2023-02-19T01:16:38;9.10;;;2.70;;
70675;SDS011;59069;52.242;20.900;2023-02-19T01:19:04;10.03;;;2.57;;
70675;SDS011;59069;52.242;20.900;2023-02-19T01:21:29;11.10;;;2.87;;
70675;SDS011;59069;52.242;20.900;2023-02-19T01:23:56;10.15;;;3.10;;
70675;SDS011;59069;52.242;20.900;2023-02-19T01:26:24;12.50;;;3.10;;
70675;SDS011;59069;52.242;20.900;2023-02-19T01:28:52;11.13;;;3.07;;
70675;SDS011;59069;52.242;20.900;2023-02-19T01:31:18;12.40;;;3.10;;
70675;SDS011;59069;52.242;20.900;2023-02-19T01:33:47;10.57;;;3.35;;
70675;SDS011;59069;52.242;20.900;2023-02-19T01:36:17;10.63;;;2.67;;
70675;SDS011;59069;52.242;20.900;2023-02-19T01:38:43;9.53;;;2.53;;
70675;SDS011;59069;52.242;20.900;2023-02-19T01:41:09;13.82;;;2.83;;
70675;SDS011;59069;52.242;20.900;2023-02-19T01:46:29;9.65;;;2.53;;
70675;SDS011;59069;52.242;20.900;2023-02-19T01:49:07;11.07;;;2.70;;
70675;SDS011;59069;52.242;20.900;2023-02-19T01:51:43;12.35;;;2.88;;
70675;SDS011;59069;52.242;20.900;2023-02-19T01:54:12;8.25;;;2.38;;
70675;SDS011;59069;52.242;20.900;2023-02-19T01:56:41;10.03;;;2.00;;
70675;SDS011;59069;52.242;20.900;2023-02-19T01:59:10;8.57;;;2.10;;
70675;SDS011;59069;52.242;20.900;2023-02-19T02:01:36;6.47;;;1.90;;
70675;SDS011;59069;52.242;20.900;2023-02-19T02:04:04;11.25;;;2.38;;
70675;SDS011;59069;52.242;20.900;2023-02-19T02:06:33;9.63;;;2.08;;
70675;SDS011;59069;52.242;20.900;2023-02-19T02:09:05;7.73;;;2.17;;
70675;SDS011;59069;52.242;20.900;2023-02-19T02:11:51;7.60;;;1.80;;
70675;SDS011;59069;52.242;20.900;2023-02-19T02:14:17;10.82;;;2.08;;
70675;SDS011;59069;52.242;20.900;2023-02-19T02:17:06;11.80;;;2.50;;
70675;SDS011;59069;52.242;20.900;2023-02-19T02:22:25;9.53;;;2.17;;
70675;SDS011;59069;52.242;20.900;2023-02-19T02:27:40;8.68;;;3.20;;
70675;SDS011;59069;52.242;20.900;2023-02-19T02:30:20;9.90;;;2.38;;
70675;SDS011;59069;52.242;20.900;2023-02-19T02:33:00;8.70;;;2.40;;
70675;SDS011;59069;52.242;20.900;2023-02-19T02:35:38;9.83;;;2.70;;
70675;SDS011;59069;52.242;20.900;2023-02-19T02:38:13;10.15;;;2.50;;
70675;SDS011;59069;52.242;20.900;2023-02-19T02:40:41;7.25;;;2.17;;
70675;SDS011;59069;52.242;20.900;2023-02-19T02:43:08;10.93;;;2.05;;
70675;SDS011;59069;52.242;20.900;2023-02-19T02:45:35;8.30;;;2.50;;
70675;SDS011;59069;52.242;20.900;2023-02-19T02:50:35;9.75;;;2.35;;
70675;SDS011;59069;52.242;20.900;2023-02-19T02:53:07;7.82;;;1.85;;
70675;SDS011;59069;52.242;20.900;2023-02-19T02:55:54;10.13;;;2.28;;
70675;SDS011;59069;52.242;20.900;2023-02-19T02:58:20;8.57;;;2.10;;
70675;SDS011;59069;52.242;20.900;2023-02-19T03:00:49;7.60;;;1.87;;
70675;SDS011;59069;52.242;20.900;2023-02-19T03:03:37;9.68;;;2.08;;
70675;SDS011;59069;52.242;20.900;2023-02-19T03:06:05;10.88;;;1.83;;
70675;SDS011;59069;52.242;20.900;2023-02-19T03:08:35;7.28;;;2.00;;
70675;SDS011;59069;52.242;20.900;2023-02-19T03:11:05;10.23;;;1.88;;
70675;SDS011;59069;52.242;20.900;2023-02-19T03:13:55;12.37;;;2.57;;
70675;SDS011;59069;52.242;20.900;2023-02-19T03:16:54;6.85;;;2.42;;
70675;SDS011;59069;52.242;20.900;2023-02-19T03:19:44;8.00;;;1.80;;
70675;SDS011;59069;52.242;20.900;2023-02-19T03:22:47;7.60;;;2.60;;
70675;SDS011;59069;52.242;20.900;2023-02-19T03:25:15;7.28;;;1.55;;
70675;SDS011;59069;52.242;20.900;2023-02-19T03:28:03;7.43;;;1.90;;
70675;SDS011;59069;52.242;20.900;2023-02-19T03:30:32;8.27;;;1.95;;
70675;SDS011;59069;52.242;20.900;2023-02-19T03:33:02;6.82;;;1.42;;
70675;SDS011;59069;52.242;20.900;2023-02-19T03:35:40;11.25;;;1.73;;
70675;SDS011;59069;52.242;20.900;2023-02-19T03:38:15;7.70;;;1.90;;
70675;SDS011;59069;52.242;20.900;2023-02-19T03:43:17;7.13;;;1.80;;
70675;SDS011;59069;52.242;20.900;2023-02-19T03:46:10;9.55;;;1.95;;
70675;SDS011;59069;52.242;20.900;2023-02-19T03:48:55;9.77;;;2.03;;
70675;SDS011;59069;52.242;20.900;2023-02-19T03:51:39;6.88;;;1.55;;
70675;SDS011;59069;52.242;20.900;2023-02-19T03:57:07;6.18;;;1.33;;
70675;SDS011;59069;52.242;20.900;2023-02-19T03:59:49;13.35;;;1.88;;
70675;SDS011;59069;52.242;20.900;2023-02-19T04:02:29;8.23;;;1.55;;
70675;SDS011;59069;52.242;20.900;2023-02-19T04:05:06;7.80;;;1.67;;
70675;SDS011;59069;52.242;20.900;2023-02-19T04:07:45;7.83;;;1.73;;
70675;SDS011;59069;52.242;20.900;2023-02-19T04:10:14;8.73;;;1.77;;
70675;SDS011;59069;52.242;20.900;2023-02-19T04:12:43;14.95;;;1.45;;
70675;SDS011;59069;52.242;20.900;2023-02-19T04:15:14;8.68;;;1.50;;
70675;SDS011;59069;52.242;20.900;2023-02-19T04:18:04;8.55;;;1.55;;
70675;SDS011;59069;52.242;20.900;2023-02-19T04:20:35;6.30;;;1.30;;
70675;SDS011;59069;52.242;20.900;2023-02-19T04:23:05;9.13;;;1.33;;
70675;SDS011;59069;52.242;20.900;2023-02-19T04:25:31;9.05;;;1.50;;
70675;SDS011;59069;52.242;20.900;2023-02-19T04:28:00;8.52;;;1.55;;
70675;SDS011;59069;52.242;20.900;2023-02-19T04:30:26;9.93;;;1.55;;
70675;SDS011;59069;52.242;20.900;2023-02-19T04:32:52;8.80;;;1.50;;
70675;SDS011;59069;52.242;20.900;2023-02-19T04:35:18;10.93;;;1.37;;
70675;SDS011;59069;52.242;20.900;2023-02-19T04:37:43;5.25;;;0.95;;
70675;SDS011;59069;52.242;20.900;2023-02-19T04:40:09;8.63;;;1.83;;
70675;SDS011;59069;52.242;20.900;2023-02-19T04:42:35;7.68;;;1.52;;
70675;SDS011;59069;52.242;20.900;2023-02-19T04:45:01;8.93;;;1.63;;
70675;SDS011;59069;52.242;20.900;2023-02-19T04:47:26;7.68;;;1.13;;
70675;SDS011;59069;52.242;20.900;2023-02-19T04:49:52;5.87;;;1.33;;
70675;SDS011;59069;52.242;20.900;2023-02-19T04:52:17;8.13;;;1.20;;
70675;SDS011;59069;52.242;20.900;2023-02-19T04:54:43;9.40;;;1.40;;
70675;SDS011;59069;52.242;20.900;2023-02-19T04:57:09;7.13;;;1.47;;
70675;SDS011;59069;52.242;20.900;2023-02-19T04:59:34;7.47;;;1.70;;
70675;SDS011;59069;52.242;20.900;2023-02-19T05:02:00;9.43;;;1.90;;
70675;SDS011;59069;52.242;20.900;2023-02-19T05:04:25;11.73;;;1.75;;
70675;SDS011;59069;52.242;20.900;2023-02-19T05:06:51;9.83;;;1.70;;
70675;SDS011;59069;52.242;20.900;2023-02-19T05:09:17;9.98;;;1.85;;
70675;SDS011;59069;52.242;20.900;2023-02-19T05:11:42;9.33;;;2.03;;
70675;SDS011;59069;52.242;20.900;2023-02-19T05:14:08;10.23;;;2.03;;
70675;SDS011;59069;52.242;20.900;2023-02-19T05:16:33;10.60;;;2.20;;
70675;SDS011;59069;52.242;20.900;2023-02-19T05:18:59;8.55;;;2.22;;
70675;SDS011;59069;52.242;20.900;2023-02-19T05:21:25;6.57;;;1.93;;
70675;SDS011;59069;52.242;20.900;2023-02-19T05:23:50;7.63;;;1.73;;
70675;SDS011;59069;52.242;20.900;2023-02-19T05:26:17;13.20;;;2.23;;
70675;SDS011;59069;52.242;20.900;2023-02-19T05:28:46;9.05;;;2.22;;
70675;SDS011;59069;52.242;20.900;2023-02-19T05:31:13;8.93;;;2.15;;
70675;SDS011;59069;52.242;20.900;2023-02-19T05:33:39;7.20;;;2.13;;
70675;SDS011;59069;52.242;20.900;2023-02-19T05:36:08;8.93;;;2.13;;
70675;SDS011;59069;52.242;20.900;2023-02-19T05:38:38;9.40;;;2.10;;
70675;SDS011;59069;52.242;20.900;2023-02-19T05:41:17;12.07;;;2.40;;
70675;SDS011;59069;52.242;20.900;2023-02-19T05:43:45;9.70;;;2.25;;
70675;SDS011;59069;52.242;20.900;2023-02-19T05:46:12;11.90;;;2.50;;
70675;SDS011;59069;52.242;20.900;2023-02-19T05:48:40;8.45;;;2.50;;
70675;SDS011;59069;52.242;20.900;2023-02-19T05:51:07;10.80;;;2.63;;
70675;SDS011;59069;52.242;20.900;2023-02-19T05:53:37;10.95;;;2.85;;
70675;SDS011;59069;52.242;20.900;2023-02-19T05:56:03;12.40;;;2.50;;
70675;SDS011;59069;52.242;20.900;2023-02-19T05:58:29;10.48;;;2.30;;
70675;SDS011;59069;52.242;20.900;2023-02-19T06:00:55;9.13;;;2.88;;
70675;SDS011;59069;52.242;20.900;2023-02-19T06:03:21;10.70;;;2.90;;
70675;SDS011;59069;52.242;20.900;2023-02-19T06:05:47;11.40;;;2.72;;
70675;SDS011;59069;52.242;20.900;2023-02-19T06:08:13;11.40;;;2.65;;
70675;SDS011;59069;52.242;20.900;2023-02-19T06:10:39;9.27;;;2.47;;
70675;SDS011;59069;52.242;20.900;2023-02-19T06:13:06;8.55;;;2.58;;
70675;SDS011;59069;52.242;20.900;2023-02-19T06:15:33;13.00;;;2.92;;
70675;SDS011;59069;52.242;20.900;2023-02-19T06:17:58;10.23;;;2.65;;
70675;SDS011;59069;52.242;20.900;2023-02-19T06:20:24;10.17;;;3.70;;
70675;SDS011;59069;52.242;20.900;2023-02-19T06:22:50;10.93;;;3.67;;
70675;SDS011;59069;52.242;20.900;2023-02-19T06:25:16;9.70;;;3.63;;
70675;SDS011;59069;52.242;20.900;2023-02-19T06:27:42;11.77;;;3.42;;
70675;SDS011;59069;52.242;20.900;2023-02-19T06:30:08;14.57;;;3.50;;
70675;SDS011;59069;52.242;20.900;2023-02-19T06:32:34;12.60;;;3.45;;
70675;SDS011;59069;52.242;20.900;2023-02-19T06:35:00;10.55;;;2.85;;
70675;SDS011;59069;52.242;20.900;2023-02-19T06:37:26;12.53;;;2.87;;
70675;SDS011;59069;52.242;20.900;2023-02-19T06:39:51;10.90;;;2.90;;
70675;SDS011;59069;52.242;20.900;2023-02-19T06:42:17;12.18;;;2.85;;
70675;SDS011;59069;52.242;20.900;2023-02-19T06:44:43;10.07;;;2.43;;
70675;SDS011;59069;52.242;20.900;2023-02-19T06:47:08;8.93;;;2.60;;
70675;SDS011;59069;52.242;20.900;2023-02-19T06:49:34;8.27;;;2.75;;
70675;SDS011;59069;52.242;20.900;2023-02-19T06:52:00;11.35;;;2.50;;
70675;SDS011;59069;52.242;20.900;2023-02-19T06:54:27;12.53;;;2.80;;
70675;SDS011;59069;52.242;20.900;2023-02-19T06:56:53;13.07;;;3.10;;
70675;SDS011;59069;52.242;20.900;2023-02-19T06:59:21;11.65;;;3.42;;
70675;SDS011;59069;52.242;20.900;2023-02-19T07:01:46;8.53;;;2.77;;
70675;SDS011;59069;52.242;20.900;2023-02-19T07:04:12;10.27;;;3.08;;
70675;SDS011;59069;52.242;20.900;2023-02-19T07:06:38;10.77;;;3.07;;
70675;SDS011;59069;52.242;20.900;2023-02-19T07:09:04;10.00;;;2.72;;
70675;SDS011;59069;52.242;20.900;2023-02-19T07:11:31;8.20;;;2.78;;
70675;SDS011;59069;52.242;20.900;2023-02-19T07:14:00;11.50;;;2.90;;
70675;SDS011;59069;52.242;20.900;2023-02-19T07:16:27;13.25;;;3.40;;
70675;SDS011;59069;52.242;20.900;2023-02-19T07:18:55;11.85;;;3.40;;
70675;SDS011;59069;52.242;20.900;2023-02-19T07:21:22;12.00;;;3.08;;
70675;SDS011;59069;52.242;20.900;2023-02-19T07:23:48;10.73;;;3.10;;
70675;SDS011;59069;52.242;20.900;2023-02-19T07:26:14;13.97;;;3.70;;
70675;SDS011;59069;52.242;20.900;2023-02-19T07:28:41;13.93;;;3.63;;
70675;SDS011;59069;52.242;20.900;2023-02-19T07:31:08;10.52;;;3.10;;
70675;SDS011;59069;52.242;20.900;2023-02-19T07:33:34;14.30;;;3.03;;
70675;SDS011;59069;52.242;20.900;2023-02-19T07:35:59;14.13;;;3.38;;
70675;SDS011;59069;52.242;20.900;2023-02-19T07:38:25;11.03;;;3.43;;
70675;SDS011;59069;52.242;20.900;2023-02-19T07:40:55;9.25;;;3.30;;
70675;SDS011;59069;52.242;20.900;2023-02-19T07:43:23;12.55;;;3.25;;
70675;SDS011;59069;52.242;20.900;2023-02-19T07:45:49;12.10;;;2.65;;
70675;SDS011;59069;52.242;20.900;2023-02-19T07:48:16;11.87;;;3.10;;
70675;SDS011;59069;52.242;20.900;2023-02-19T07:50:41;12.43;;;3.67;;
70675;SDS011;59069;52.242;20.900;2023-02-19T07:53:14;11.38;;;3.47;;
70675;SDS011;59069;52.242;20.900;2023-02-19T07:55:39;11.00;;;3.53;;
70675;SDS011;59069;52.242;20.900;2023-02-19T07:58:05;11.57;;;3.72;;
70675;SDS011;59069;52.242;20.900;2023-02-19T08:00:31;10.57;;;3.20;;
70675;SDS011;59069;52.242;20.900;2023-02-19T08:02:56;12.05;;;3.88;;
70675;SDS011;59069;52.242;20.900;2023-02-19T08:05:30;13.70;;;4.20;;
70675;SDS011;59069;52.242;20.900;2023-02-19T08:07:58;12.35;;;3.50;;
70675;SDS011;59069;52.242;20.900;2023-02-19T08:10:24;13.82;;;2.90;;
70675;SDS011;59069;52.242;20.900;2023-02-19T08:13:10;10.40;;;2.97;;
70675;SDS011;59069;52.242;20.900;2023-02-19T08:18:27;12.07;;;3.53;;
70675;SDS011;59069;52.242;20.900;2023-02-19T08:20:55;8.77;;;2.65;;
70675;SDS011;59069;52.242;20.900;2023-02-19T08:23:21;12.82;;;3.65;;
70675;SDS011;59069;52.242;20.900;2023-02-19T08:25:47;9.60;;;3.22;;
70675;SDS011;59069;52.242;20.900;2023-02-19T08:28:14;11.38;;;3.50;;
70675;SDS011;59069;52.242;20.900;2023-02-19T08:30:40;13.67;;;3.60;;
70675;SDS011;59069;52.242;20.900;2023-02-19T08:33:14;13.25;;;3.50;;
70675;SDS011;59069;52.242;20.900;2023-02-19T08:35:41;12.70;;;3.83;;
70675;SDS011;59069;52.242;20.900;2023-02-19T08:38:08;11.20;;;3.37;;
70675;SDS011;59069;52.242;20.900;2023-02-19T08:40:35;12.60;;;4.03;;
70675;SDS011;59069;52.242;20.900;2023-02-19T08:43:05;11.32;;;3.00;;
70675;SDS011;59069;52.242;20.900;2023-02-19T08:45:33;10.50;;;3.70;;
70675;SDS011;59069;52.242;20.900;2023-02-19T08:47:59;9.35;;;2.92;;
70675;SDS011;59069;52.242;20.900;2023-02-19T08:50:25;10.30;;;2.90;;
70675;SDS011;59069;52.242;20.900;2023-02-19T08:52:51;7.65;;;3.08;;
70675;SDS011;59069;52.242;20.900;2023-02-19T08:55:16;11.48;;;2.95;;
70675;SDS011;59069;52.242;20.900;2023-02-19T08:57:42;10.57;;;3.30;;
70675;SDS011;59069;52.242;20.900;2023-02-19T09:00:09;8.05;;;2.67;;
70675;SDS011;59069;52.242;20.900;2023-02-19T09:02:35;12.80;;;3.55;;
70675;SDS011;59069;52.242;20.900;2023-02-19T09:05:01;10.77;;;2.75;;
70675;SDS011;59069;52.242;20.900;2023-02-19T09:07:26;12.77;;;3.40;;
70675;SDS011;59069;52.242;20.900;2023-02-19T09:09:52;10.43;;;3.50;;
70675;SDS011;59069;52.242;20.900;2023-02-19T09:12:18;16.35;;;3.50;;
70675;SDS011;59069;52.242;20.900;2023-02-19T09:14:44;11.17;;;2.77;;
70675;SDS011;59069;52.242;20.900;2023-02-19T09:17:10;10.13;;;2.90;;
70675;SDS011;59069;52.242;20.900;2023-02-19T09:19:36;9.77;;;2.90;;
70675;SDS011;59069;52.242;20.900;2023-02-19T09:22:02;14.77;;;3.30;;
70675;SDS011;59069;52.242;20.900;2023-02-19T09:24:29;9.52;;;2.83;;
70675;SDS011;59069;52.242;20.900;2023-02-19T09:26:55;11.40;;;3.47;;
70675;SDS011;59069;52.242;20.900;2023-02-19T09:29:21;7.80;;;2.70;;
70675;SDS011;59069;52.242;20.900;2023-02-19T09:31:49;10.23;;;3.58;;
70675;SDS011;59069;52.242;20.900;2023-02-19T09:34:15;9.82;;;3.45;;
70675;SDS011;59069;52.242;20.900;2023-02-19T09:36:40;9.67;;;3.10;;
70675;SDS011;59069;52.242;20.900;2023-02-19T09:39:07;10.52;;;2.70;;
70675;SDS011;59069;52.242;20.900;2023-02-19T09:41:35;11.35;;;2.70;;
70675;SDS011;59069;52.242;20.900;2023-02-19T09:44:05;13.77;;;3.00;;
70675;SDS011;59069;52.242;20.900;2023-02-19T09:49:09;12.98;;;3.10;;
70675;SDS011;59069;52.242;20.900;2023-02-19T09:51:38;10.68;;;3.17;;
70675;SDS011;59069;52.242;20.900;2023-02-19T09:54:09;8.68;;;3.10;;
70675;SDS011;59069;52.242;20.900;2023-02-19T09:56:44;9.97;;;3.37;;
70675;SDS011;59069;52.242;20.900;2023-02-19T09:59:13;8.98;;;3.55;;
70675;SDS011;59069;52.242;20.900;2023-02-19T10:02:13;9.43;;;3.10;;
70675;SDS011;59069;52.242;20.900;2023-02-19T10:04:46;13.53;;;3.03;;
70675;SDS011;59069;52.242;20.900;2023-02-19T10:07:21;8.75;;;2.97;;
70675;SDS011;59069;52.242;20.900;2023-02-19T10:10:39;11.02;;;3.10;;
70675;SDS011;59069;52.242;20.900;2023-02-19T10:12:53;11.23;;;3.22;;
70675;SDS011;59069;52.242;20.900;2023-02-19T10:18:16;9.10;;;3.00;;
70675;SDS011;59069;52.242;20.900;2023-02-19T10:20:43;10.68;;;2.95;;
70675;SDS011;59069;52.242;20.900;2023-02-19T10:23:10;8.38;;;2.47;;
70675;SDS011;59069;52.242;20.900;2023-02-19T10:25:40;8.80;;;2.90;;
70675;SDS011;59069;52.242;20.900;2023-02-19T10:28:10;8.20;;;2.97;;
70675;SDS011;59069;52.242;20.900;2023-02-19T10:30:39;9.60;;;3.10;;
70675;SDS011;59069;52.242;20.900;2023-02-19T10:33:10;9.57;;;2.92;;
70675;SDS011;59069;52.242;20.900;2023-02-19T10:35:53;8.48;;;2.85;;
70675;SDS011;59069;52.242;20.900;2023-02-19T10:38:25;10.20;;;2.70;;
70675;SDS011;59069;52.242;20.900;2023-02-19T10:41:15;8.90;;;2.47;;
70675;SDS011;59069;52.242;20.900;2023-02-19T10:43:42;8.43;;;3.13;;
70675;SDS011;59069;52.242;20.900;2023-02-19T10:48:54;11.40;;;3.08;;
70675;SDS011;59069;52.242;20.900;2023-02-19T10:51:36;11.15;;;2.55;;
70675;SDS011;59069;52.242;20.900;2023-02-19T10:54:15;10.13;;;2.23;;
70675;SDS011;59069;52.242;20.900;2023-02-19T10:56:44;9.02;;;2.10;;
70675;SDS011;59069;52.242;20.900;2023-02-19T10:59:28;8.75;;;2.90;;
70675;SDS011;59069;52.242;20.900;2023-02-19T11:04:20;7.65;;;2.45;;
70675;SDS011;59069;52.242;20.900;2023-02-19T11:06:46;9.40;;;2.27;;
70675;SDS011;59069;52.242;20.900;2023-02-19T11:09:32;8.63;;;2.03;;
70675;SDS011;59069;52.242;20.900;2023-02-19T11:12:09;9.68;;;2.08;;
70675;SDS011;59069;52.242;20.900;2023-02-19T11:14:40;9.32;;;2.50;;
70675;SDS011;59069;52.242;20.900;2023-02-19T11:17:15;9.68;;;2.63;;
70675;SDS011;59069;52.242;20.900;2023-02-19T11:19:57;7.23;;;2.43;;
70675;SDS011;59069;52.242;20.900;2023-02-19T11:22:37;10.07;;;2.63;;
70675;SDS011;59069;52.242;20.900;2023-02-19T11:25:28;10.60;;;2.10;;
70675;SDS011;59069;52.242;20.900;2023-02-19T11:33:12;8.40;;;2.20;;
70675;SDS011;59069;52.242;20.900;2023-02-19T11:35:44;8.77;;;2.33;;
70675;SDS011;59069;52.242;20.900;2023-02-19T11:38:18;9.70;;;2.20;;
70675;SDS011;59069;52.242;20.900;2023-02-19T11:41:04;8.20;;;2.00;;
70675;SDS011;59069;52.242;20.900;2023-02-19T11:46:15;7.87;;;2.40;;
70675;SDS011;59069;52.242;20.900;2023-02-19T11:57:41;7.68;;;2.00;;
70675;SDS011;59069;52.242;20.900;2023-02-19T12:02:43;7.88;;;2.13;;
70675;SDS011;59069;52.242;20.900;2023-02-19T12:13:42;8.37;;;2.30;;
70675;SDS011;59069;52.242;20.900;2023-02-19T12:25:20;9.00;;;2.28;;
70675;SDS011;59069;52.242;20.900;2023-02-19T12:33:25;7.75;;;2.10;;
70675;SDS011;59069;52.242;20.900;2023-02-19T12:39:36;8.75;;;1.80;;
70675;SDS011;59069;52.242;20.900;2023-02-19T12:44:50;7.57;;;2.00;;
70675;SDS011;59069;52.242;20.900;2023-02-19T12:47:30;9.63;;;1.80;;
70675;SDS011;59069;52.242;20.900;2023-02-19T12:50:18;5.88;;;1.45;;
70675;SDS011;59069;52.242;20.900;2023-02-19T12:53:32;9.00;;;1.95;;
70675;SDS011;59069;52.242;20.900;2023-02-19T12:55:55;7.83;;;1.77;;
70675;SDS011;59069;52.242;20.900;2023-02-19T12:58:30;8.40;;;2.60;;
70675;SDS011;59069;52.242;20.900;2023-02-19T13:01:00;7.15;;;2.00;;
70675;SDS011;59069;52.242;20.900;2023-02-19T13:06:19;9.88;;;1.70;;
70675;SDS011;59069;52.242;20.900;2023-02-19T13:09:02;6.57;;;1.50;;
70675;SDS011;59069;52.242;20.900;2023-02-19T13:11:40;5.45;;;1.52;;
70675;SDS011;59069;52.242;20.900;2023-02-19T13:14:14;9.52;;;1.60;;
70675;SDS011;59069;52.242;20.900;2023-02-19T13:16:49;7.03;;;1.50;;
70675;SDS011;59069;52.242;20.900;2023-02-19T13:19:21;6.25;;;1.70;;
70675;SDS011;59069;52.242;20.900;2023-02-19T13:21:49;10.47;;;1.63;;
70675;SDS011;59069;52.242;20.900;2023-02-19T13:24:41;8.25;;;1.50;;
70675;SDS011;59069;52.242;20.900;2023-02-19T13:27:22;9.35;;;3.00;;
70675;SDS011;59069;52.242;20.900;2023-02-19T13:37:48;7.38;;;1.60;;
70675;SDS011;59069;52.242;20.900;2023-02-19T13:43:03;7.93;;;1.53;;
70675;SDS011;59069;52.242;20.900;2023-02-19T13:45:38;10.18;;;1.50;;
70675;SDS011;59069;52.242;20.900;2023-02-19T13:59:11;7.35;;;1.80;;
70675;SDS011;59069;52.242;20.900;2023-02-19T14:14:43;9.63;;;1.83;;
70675;SDS011;59069;52.242;20.900;2023-02-19T14:20:00;9.50;;;2.25;;
70675;SDS011;59069;52.242;20.900;2023-02-19T14:28:18;6.20;;;1.25;;
70675;SDS011;59069;52.242;20.900;2023-02-19T14:31:01;9.45;;;1.73;;
70675;SDS011;59069;52.242;20.900;2023-02-19T14:33:36;8.60;;;1.98;;
70675;SDS011;59069;52.242;20.900;2023-02-19T14:38:51;6.95;;;1.50;;
70675;SDS011;59069;52.242;20.900;2023-02-19T14:41:20;7.28;;;1.35;;
70675;SDS011;59069;52.242;20.900;2023-02-19T14:43:48;6.28;;;1.45;;
70675;SDS011;59069;52.242;20.900;2023-02-19T14:46:29;7.82;;;1.73;;
70675;SDS011;59069;52.242;20.900;2023-02-19T14:51:52;6.32;;;1.10;;
70675;SDS011;59069;52.242;20.900;2023-02-19T14:57:17;10.35;;;1.58;;
70675;SDS011;59069;52.242;20.900;2023-02-19T14:59:57;7.75;;;1.85;;
70675;SDS011;59069;52.242;20.900;2023-02-19T15:02:25;7.18;;;0.95;;
70675;SDS011;59069;52.242;20.900;2023-02-19T15:04:52;5.43;;;0.80;;
70675;SDS011;59069;52.242;20.900;2023-02-19T15:07:22;7.78;;;1.13;;
70675;SDS011;59069;52.242;20.900;2023-02-19T15:09:59;8.63;;;1.17;;
70675;SDS011;59069;52.242;20.900;2023-02-19T15:12:34;5.55;;;1.33;;
70675;SDS011;59069;52.242;20.900;2023-02-19T15:15:14;6.47;;;1.30;;
70675;SDS011;59069;52.242;20.900;2023-02-19T15:17:52;7.00;;;1.27;;
70675;SDS011;59069;52.242;20.900;2023-02-19T15:20:19;8.82;;;1.45;;
70675;SDS011;59069;52.242;20.900;2023-02-19T15:22:50;6.43;;;1.45;;
70675;SDS011;59069;52.242;20.900;2023-02-19T15:25:18;8.07;;;1.25;;
70675;SDS011;59069;52.242;20.900;2023-02-19T15:27:46;6.75;;;1.13;;
70675;SDS011;59069;52.242;20.900;2023-02-19T15:30:25;7.13;;;1.47;;
70675;SDS011;59069;52.242;20.900;2023-02-19T15:32:57;6.70;;;1.20;;
70675;SDS011;59069;52.242;20.900;2023-02-19T15:35:24;7.30;;;1.23;;
70675;SDS011;59069;52.242;20.900;2023-02-19T15:37:51;6.30;;;1.60;;
70675;SDS011;59069;52.242;20.900;2023-02-19T15:40:19;6.72;;;1.80;;
70675;SDS011;59069;52.242;20.900;2023-02-19T15:42:54;7.88;;;1.60;;
70675;SDS011;59069;52.242;20.900;2023-02-19T15:45:22;7.47;;;1.23;;
70675;SDS011;59069;52.242;20.900;2023-02-19T15:50:47;5.60;;;1.40;;
70675;SDS011;59069;52.242;20.900;2023-02-19T15:53:16;8.27;;;1.70;;
70675;SDS011;59069;52.242;20.900;2023-02-19T15:55:51;8.15;;;1.33;;
70675;SDS011;59069;52.242;20.900;2023-02-19T15:58:46;7.40;;;1.85;;
70675;SDS011;59069;52.242;20.900;2023-02-19T16:01:19;8.27;;;1.52;;
70675;SDS011;59069;52.242;20.900;2023-02-19T16:03:52;8.23;;;1.73;;
70675;SDS011;59069;52.242;20.900;2023-02-19T16:06:19;7.70;;;1.40;;
70675;SDS011;59069;52.242;20.900;2023-02-19T16:09:05;7.55;;;1.65;;
70675;SDS011;59069;52.242;20.900;2023-02-19T16:11:51;8.65;;;2.17;;
70675;SDS011;59069;52.242;20.900;2023-02-19T16:14:22;9.32;;;1.98;;
70675;SDS011;59069;52.242;20.900;2023-02-19T16:16:58;9.07;;;2.10;;
70675;SDS011;59069;52.242;20.900;2023-02-19T16:19:55;11.35;;;2.35;;
70675;SDS011;59069;52.242;20.900;2023-02-19T16:22:28;9.73;;;2.00;;
70675;SDS011;59069;52.242;20.900;2023-02-19T16:25:01;10.60;;;2.55;;
70675;SDS011;59069;52.242;20.900;2023-02-19T16:27:29;11.13;;;2.65;;
70675;SDS011;59069;52.242;20.900;2023-02-19T16:29:56;10.70;;;2.80;;
70675;SDS011;59069;52.242;20.900;2023-02-19T16:32:22;10.30;;;2.55;;
70675;SDS011;59069;52.242;20.900;2023-02-19T16:34:49;11.57;;;2.85;;
70675;SDS011;59069;52.242;20.900;2023-02-19T16:37:32;11.07;;;2.60;;
70675;SDS011;59069;52.242;20.900;2023-02-19T16:45:25;12.38;;;2.85;;
70675;SDS011;59069;52.242;20.900;2023-02-19T16:47:50;10.57;;;2.30;;
70675;SDS011;59069;52.242;20.900;2023-02-19T16:50:17;9.27;;;2.08;;
70675;SDS011;59069;52.242;20.900;2023-02-19T16:53:03;10.83;;;2.67;;
70675;SDS011;59069;52.242;20.900;2023-02-19T16:55:29;12.30;;;2.67;;
70675;SDS011;59069;52.242;20.900;2023-02-19T16:58:04;11.43;;;2.92;;
70675;SDS011;59069;52.242;20.900;2023-02-19T17:00:30;12.30;;;2.70;;
70675;SDS011;59069;52.242;20.900;2023-02-19T17:02:57;15.38;;;3.30;;
70675;SDS011;59069;52.242;20.900;2023-02-19T17:05:26;16.45;;;3.35;;
70675;SDS011;59069;52.242;20.900;2023-02-19T17:07:54;12.20;;;2.63;;
70675;SDS011;59069;52.242;20.900;2023-02-19T17:10:21;11.17;;;2.53;;